Meteo Giornale » Osservazioni meteo Russia » Magnitogorsk
ore: 00:30 - Osservazioni Meteo Magnitogorsk
Lat. 53° 24' N Lon. 58° 45' E Alt. 435 metri s.l.m.
8 °C
Sereno
Temp. 24 Ore
-1 °C
17 °C
Nord
3.6 Km/h
Dew point 2 °C
Umidità 65 %
Visibilità 10 Km
Il sole sorge alle ore 06:14
Il sole tramonta alle ore 19:55
| Data e Ora | Cielo e Fenomeni | T °C | DP °C | Um. % | Pres. hPa | Vis. km | Vento km/h | |
|---|---|---|---|---|---|---|---|---|
| Oggi h: 00:30 | Sereno | 8 | 2 | 65 | 1019 | 10 | N 3.6 | |
| Oggi h: 00:00 | Sereno | 8 | 2 | 65 | 1020 | 10 | N 7.2 | |
| Ieri h: 23:30 | Sereno | 5 | 1 | 75 | 1019 | 10 | N 3.6 | |
| Ieri h: 23:00 | Sereno | 7 | 2 | 70 | 1019 | 10 | N 7.2 | |
| Ieri h: 22:30 | Sereno | 8 | 2 | 65 | 1019 | 10 | NO 18 | |
| Ieri h: 22:00 | Sereno | 8 | 2 | 65 | 1019 | 10 | N/NO 21.6 | |
| Ieri h: 21:30 | Sereno | 8 | 1 | 61 | 1019 | 10 | NO 18 | |
| Ieri h: 21:00 | Sereno | 9 | 1 | 57 | 1019 | 10 | N/NO 18 | |
| Ieri h: 20:30 | Sereno | 10 | 1 | 53 | 1019 | 10 | NO 10.8 | |
| Ieri h: 20:00 | Sereno | 11 | 1 | 50 | 1019 | 10 | NO 18 | |
| Ieri h: 19:30 | Poco Nuvoloso | 13 | 1 | 43 | 1018 | 10 | NO 25.2 | |
| Ieri h: 19:00 | Poco Nuvoloso | 14 | 0 | 38 | 1018 | 10 | NO 25.2 | |
| Ieri h: 18:30 | Nuvoloso | 15 | 0 | 35 | 1018 | 10 | NO 25.2 | |
| Ieri h: 18:00 | Nuvoloso | 15 | 0 | 35 | 1018 | 10 | O/NO 28.8 | |
| Ieri h: 17:30 | Nuvoloso | 16 | 0 | 33 | 1018 | 10 | O/NO 25.2 | |
| Ieri h: 17:00 | Nuvoloso | 16 | -1 | 31 | 1018 | 10 | O/NO 28.8 | |
| Ieri h: 16:30 | Nuvoloso | 16 | -1 | 31 | 1018 | 10 | O 28.8 | |
| Ieri h: 16:00 | Nuvoloso | 15 | -1 | 33 | 1018 | 10 | NO 28.8 | |
| Ieri h: 15:45 | Nuvoloso | 16 | 0 | 33 | 1018 | 10 | O/NO 32.4 | |
| Ieri h: 15:30 | Nuvoloso | 16 | 0 | 33 | 1018 | 10 | NO 32.4 | |
| Ieri h: 15:09 | Nuvoloso | 16 | -1 | 31 | 1018 | 10 | NO 28.8 | |
| Ieri h: 15:00 | Nuvoloso | 16 | -1 | 31 | 1018 | 10 | NO 25.2 | |
| Ieri h: 14:30 | Nuvoloso | 17 | 0 | 31 | 1018 | 10 | O/NO 18 | |
| Ieri h: 14:00 | Nuvoloso | 14 | 0 | 38 | 1018 | 10 | O/NO 18 | |
| Ieri h: 13:30 | Molto Nuvoloso | 14 | 1 | 41 | 1019 | 10 | O 18 | |
| Ieri h: 13:00 | Molto Nuvoloso | 14 | 2 | 44 | 1019 | 10 | NO 18 | |
| Ieri h: 12:36 | Molto Nuvoloso | 13 | 2 | 47 | 1019 | 10 | O 21.6 | |
| Ieri h: 12:30 | Molto Nuvoloso | 12 | 2 | 50 | 1019 | 10 | O 25.2 | |
| Ieri h: 12:00 | Molto Nuvoloso | 12 | 2 | 50 | 1020 | 10 | O/SO 14.4 | |
| Ieri h: 11:30 | Molto Nuvoloso | 11 | 2 | 53 | 1020 | 10 | O 10.8 | |
| Ieri h: 11:00 | Molto Nuvoloso | 12 | 2 | 50 | 1020 | 10 | O 10.8 | |
| Ieri h: 10:30 | Molto Nuvoloso | 11 | 2 | 53 | 1021 | 10 | NO 10.8 | |
| Ieri h: 10:00 | Molto Nuvoloso | 10 | 2 | 57 | 1021 | 10 | O/SO 10.8 | |
| Ieri h: 09:30 | Molto Nuvoloso | 9 | 2 | 61 | 1021 | 10 | O/NO 14.4 | |
| Ieri h: 09:00 | Molto Nuvoloso | 8 | 2 | 65 | 1021 | 10 | O 10.8 | |
| Ieri h: 08:30 | Nuvoloso | 8 | 2 | 65 | 1021 | 10 | N 7.2 | |
| Ieri h: 08:00 | Nuvoloso | 7 | 2 | 70 | 1021 | 10 | O 10.8 | |
| Ieri h: 07:30 | Nuvoloso | 5 | 3 | 86 | 1021 | 10 | O 10.8 | |
| Ieri h: 07:00 | Molto Nuvoloso | 2 | 1 | 93 | 1021 | 10 | O 14.4 | |
| Ieri h: 06:30 | Molto Nuvoloso | 3 | 1 | 86 | 1021 | 10 | O/NO 14.4 | |
| Ieri h: 06:00 | Nuvoloso | -1 | -1 | 100 | 1021 | 10 | N 7.2 | |
| Ieri h: 05:30 | Nuvoloso | 1 | 1 | 100 | 1021 | 10 | O 10.8 | |
| Ieri h: 05:00 | Nuvoloso | 1 | 1 | 100 | 1021 | 10 | O 10.8 | |
| Ieri h: 04:30 | Nuvoloso | 1 | 0 | 93 | 1021 | 10 | N 7.2 | |
| Ieri h: 04:00 | Nuvoloso | 2 | 2 | 100 | 1021 | 10 | N 7.2 | |
| Ieri h: 03:30 | Nuvoloso | 1 | 1 | 100 | 1021 | 10 | N 7.2 | |
| Ieri h: 03:00 | Nuvoloso | 2 | 1 | 93 | 1021 | 10 | N 7.2 | |
| Ieri h: 02:30 | Nuvoloso | 1 | -1 | 86 | 1020 | 10 | N 0 | |
| Ieri h: 02:00 | Nuvoloso | 2 | 0 | 86 | 1020 | 10 | N 0 | |
| Ieri h: 01:30 | Nuvoloso | 4 | 1 | 80 | 1021 | 10 | N 7.2 | |
| Ieri h: 01:00 | Nuvoloso | 3 | 0 | 80 | 1021 | 10 | N 3.6 | |



